createdAt,value
2022-10-05T00:00:22.356Z,10.27
2022-10-05T00:02:52.411Z,9.50
2022-10-05T00:05:22.763Z,8.95
2022-10-05T00:07:50.797Z,9.50
2022-10-05T00:10:19.872Z,10.32
2022-10-05T00:12:48.841Z,9.95
2022-10-05T00:15:20.087Z,8.05
2022-10-05T00:17:47.151Z,8.93
2022-10-05T00:20:26.472Z,9.70
2022-10-05T00:23:01.018Z,15.10
2022-10-05T00:25:28.511Z,9.85
2022-10-05T00:28:00.431Z,8.93
2022-10-05T00:30:32.969Z,9.52
2022-10-05T00:33:00.238Z,9.40
2022-10-05T00:35:29.548Z,9.80
2022-10-05T00:37:56.897Z,11.75
2022-10-05T00:40:36.101Z,8.55
2022-10-05T00:43:16.326Z,10.85
2022-10-05T00:45:55.541Z,8.77
2022-10-05T00:48:39.126Z,14.07
2022-10-05T00:51:26.637Z,14.60
2022-10-05T00:54:18.683Z,8.68
2022-10-05T00:56:56.097Z,9.20
2022-10-05T01:00:17.395Z,6.90
2022-10-05T01:03:03.486Z,5.47
2022-10-05T01:05:40.475Z,9.05
2022-10-05T01:08:41.806Z,10.27
2022-10-05T01:11:18.731Z,7.93
2022-10-05T01:14:16.584Z,10.50
2022-10-05T01:16:55.795Z,7.90
2022-10-05T01:19:34.977Z,8.48
2022-10-05T01:22:13.299Z,8.50
2022-10-05T01:25:18.002Z,8.35
2022-10-05T01:27:57.277Z,7.45
2022-10-05T01:30:24.741Z,7.75
2022-10-05T01:32:57.757Z,6.32
2022-10-05T01:35:40.055Z,6.97
2022-10-05T01:41:05.678Z,9.82
2022-10-05T01:43:54.822Z,7.80
2022-10-05T01:46:37.126Z,6.55
2022-10-05T01:49:24.509Z,6.68
2022-10-05T01:52:03.813Z,7.28
2022-10-05T01:54:46.359Z,8.18
2022-10-05T01:57:31.929Z,7.40
2022-10-05T02:00:06.650Z,8.02
2022-10-05T02:02:52.611Z,6.15
2022-10-05T02:05:41.107Z,6.70
2022-10-05T02:08:21.529Z,8.23
2022-10-05T02:11:03.628Z,7.70
2022-10-05T02:13:34.530Z,6.75
2022-10-05T02:16:37.899Z,7.18
2022-10-05T02:19:34.331Z,9.25
2022-10-05T02:22:13.253Z,10.90
2022-10-05T02:24:50.957Z,8.82
2022-10-05T02:27:28.318Z,8.98
2022-10-05T02:30:06.106Z,10.02
2022-10-05T02:32:49.162Z,10.40
2022-10-05T02:35:18.399Z,8.30
2022-10-05T02:38:08.823Z,11.38
2022-10-05T02:41:01.517Z,8.15
2022-10-05T02:44:01.513Z,12.52
2022-10-05T02:46:33.878Z,10.60
2022-10-05T02:49:16.853Z,9.27
2022-10-05T02:51:45.139Z,8.63
2022-10-05T02:54:21.285Z,7.22
2022-10-05T02:57:28.446Z,8.95
2022-10-05T03:00:25.443Z,9.35
2022-10-05T03:02:52.653Z,10.32
2022-10-05T03:05:31.958Z,8.38
2022-10-05T03:08:12.542Z,6.13
2022-10-05T03:10:46.263Z,6.72
2022-10-05T03:13:34.281Z,7.18
2022-10-05T03:16:29.956Z,6.70
2022-10-05T03:19:27.966Z,8.23
2022-10-05T03:22:07.988Z,6.10
2022-10-05T03:24:55.329Z,5.65
2022-10-05T03:27:40.070Z,4.70
2022-10-05T03:30:23.344Z,6.43
2022-10-05T03:33:01.431Z,6.25
2022-10-05T03:35:48.925Z,8.52
2022-10-05T03:38:27.492Z,9.15
2022-10-05T03:40:58.580Z,6.75
2022-10-05T03:43:46.140Z,4.63
2022-10-05T03:46:29.573Z,5.63
2022-10-05T03:49:08.630Z,8.27
2022-10-05T03:51:43.661Z,6.63
2022-10-05T03:54:20.803Z,5.63
2022-10-05T03:56:57.982Z,4.95
2022-10-05T03:59:33.802Z,7.15
2022-10-05T04:02:06.737Z,4.20
2022-10-05T04:04:48.936Z,6.68
2022-10-05T04:07:46.867Z,7.13
2022-10-05T04:10:26.263Z,5.88
2022-10-05T04:13:05.649Z,7.10
2022-10-05T04:15:40.659Z,9.77
2022-10-05T04:18:29.051Z,4.60
2022-10-05T04:21:01.470Z,5.78
2022-10-05T04:23:31.625Z,6.20
2022-10-05T04:26:09.033Z,5.45
2022-10-05T04:28:57.237Z,7.88
2022-10-05T04:31:49.750Z,4.60
2022-10-05T04:34:48.841Z,4.53
2022-10-05T04:37:46.808Z,5.05
2022-10-05T04:40:23.035Z,3.00
2022-10-05T04:42:50.619Z,4.15
2022-10-05T04:45:40.882Z,5.30
2022-10-05T04:48:25.814Z,6.18
2022-10-05T04:51:29.244Z,3.90
2022-10-05T04:54:26.821Z,5.00
2022-10-05T04:56:59.351Z,7.35
2022-10-05T04:59:33.793Z,6.75
2022-10-05T05:02:33.588Z,5.35
2022-10-05T05:05:29.204Z,7.22
2022-10-05T05:08:36.033Z,7.07
2022-10-05T05:11:41.778Z,7.43
2022-10-05T05:14:33.277Z,8.30
2022-10-05T05:17:19.513Z,5.90
2022-10-05T05:20:15.176Z,10.43
2022-10-05T05:23:04.028Z,8.65
2022-10-05T05:26:11.779Z,7.38
2022-10-05T05:28:58.306Z,8.25
2022-10-05T05:31:45.671Z,7.35
2022-10-05T05:34:47.633Z,10.25
2022-10-05T05:37:28.718Z,9.55
2022-10-05T05:40:09.989Z,7.20
2022-10-05T05:43:15.300Z,9.10
2022-10-05T05:45:57.161Z,9.07
2022-10-05T05:48:49.410Z,12.13
2022-10-05T05:51:34.729Z,10.07
2022-10-05T05:54:30.839Z,9.95
2022-10-05T05:57:16.574Z,11.50
2022-10-05T06:00:00.616Z,13.70
2022-10-05T06:02:57.596Z,13.95
2022-10-05T06:05:28.154Z,12.40
2022-10-05T06:08:01.287Z,11.63
2022-10-05T06:10:35.893Z,10.77
2022-10-05T06:13:23.236Z,9.45
2022-10-05T06:16:19.804Z,8.60
2022-10-05T06:18:54.891Z,9.82
2022-10-05T06:21:56.376Z,13.40
2022-10-05T06:24:37.897Z,12.60
2022-10-05T06:27:26.479Z,9.95
2022-10-05T06:30:17.035Z,9.98
2022-10-05T06:32:48.072Z,8.98
2022-10-05T06:35:55.755Z,8.70
2022-10-05T06:38:41.263Z,9.40
2022-10-05T06:41:40.936Z,7.82
2022-10-05T06:44:17.221Z,8.35
2022-10-05T06:47:15.623Z,7.93
2022-10-05T06:50:04.467Z,9.00
2022-10-05T06:53:08.386Z,9.18
2022-10-05T06:55:56.866Z,8.77
2022-10-05T06:58:48.378Z,8.38
2022-10-05T07:01:47.850Z,9.60
2022-10-05T07:04:42.860Z,6.13
2022-10-05T07:07:30.903Z,7.03
2022-10-05T07:10:21.119Z,8.60
2022-10-05T07:13:30.979Z,9.63
2022-10-05T07:16:23.123Z,7.90
2022-10-05T07:19:13.482Z,8.37
2022-10-05T07:24:34.870Z,12.25
2022-10-05T07:27:05.731Z,7.20
2022-10-05T07:29:38.465Z,5.63
2022-10-05T07:32:34.535Z,6.20
2022-10-05T07:35:05.302Z,7.18
2022-10-05T07:37:54.084Z,9.65
2022-10-05T07:40:39.350Z,8.95
2022-10-05T07:43:22.186Z,6.40
2022-10-05T07:48:47.440Z,4.35
2022-10-05T07:51:46.370Z,5.03
2022-10-05T07:54:23.154Z,5.10
2022-10-05T07:57:12.650Z,7.40
2022-10-05T08:00:06.256Z,5.75
2022-10-05T08:03:10.010Z,4.65
2022-10-05T08:05:47.080Z,2.65
2022-10-05T08:08:38.948Z,4.85
2022-10-05T08:11:20.004Z,4.47
2022-10-05T08:14:08.305Z,3.05
2022-10-05T08:16:38.623Z,5.20
2022-10-05T08:19:14.427Z,3.90
2022-10-05T08:21:54.750Z,3.90
2022-10-05T08:24:38.917Z,4.80
2022-10-05T08:27:19.993Z,3.60
2022-10-05T08:30:02.079Z,3.22
2022-10-05T08:32:41.472Z,2.77
2022-10-05T08:35:34.080Z,1.73
2022-10-05T08:38:07.907Z,3.78
2022-10-05T08:40:47.193Z,4.38
2022-10-05T08:43:43.022Z,3.13
2022-10-05T08:46:22.970Z,5.50
2022-10-05T08:48:50.401Z,4.25
2022-10-05T08:51:23.467Z,3.75
2022-10-05T08:54:25.816Z,3.35
2022-10-05T08:57:16.070Z,4.43
2022-10-05T09:00:14.158Z,4.00
2022-10-05T09:03:05.733Z,6.75
2022-10-05T09:06:19.589Z,3.33
2022-10-05T09:09:08.438Z,3.53
2022-10-05T09:11:46.117Z,5.10
2022-10-05T09:14:19.347Z,4.57
2022-10-05T09:17:28.259Z,3.83
2022-10-05T09:20:11.074Z,4.60
2022-10-05T09:25:54.246Z,5.10
2022-10-05T09:28:25.061Z,6.15
2022-10-05T09:31:35.897Z,3.65
2022-10-05T09:34:30.569Z,3.55
2022-10-05T09:37:42.444Z,3.97
2022-10-05T09:40:44.582Z,5.95
2022-10-05T09:43:26.371Z,3.85
2022-10-05T09:46:15.524Z,4.90
2022-10-05T09:49:04.718Z,4.70
2022-10-05T09:51:53.878Z,4.65
2022-10-05T09:54:40.532Z,4.68
2022-10-05T09:57:48.141Z,7.05
2022-10-05T10:01:09.760Z,5.43
2022-10-05T10:04:07.205Z,4.07
2022-10-05T10:06:50.106Z,3.90
2022-10-05T10:12:25.627Z,11.73
2022-10-05T10:15:11.687Z,2.60
2022-10-05T10:17:56.600Z,4.07
2022-10-05T10:20:59.221Z,3.47
2022-10-05T10:23:55.117Z,4.07
2022-10-05T10:27:00.153Z,4.28
2022-10-05T10:29:55.391Z,3.70
2022-10-05T10:32:40.782Z,3.85
2022-10-05T10:35:22.129Z,7.72
2022-10-05T10:38:02.699Z,4.40
2022-10-05T10:41:07.066Z,3.10
2022-10-05T10:43:34.468Z,6.10
2022-10-05T10:46:32.076Z,3.97
2022-10-05T10:49:18.174Z,6.53
2022-10-05T10:52:09.990Z,6.63
2022-10-05T10:55:08.642Z,4.55
2022-10-05T10:58:16.049Z,4.65
2022-10-05T11:01:20.592Z,11.48
2022-10-05T11:03:50.547Z,5.40
2022-10-05T11:06:56.975Z,6.10
2022-10-05T11:09:50.703Z,6.72
2022-10-05T11:12:34.384Z,7.13
2022-10-05T11:15:26.669Z,7.18
2022-10-05T11:18:06.538Z,7.07
2022-10-05T11:21:04.927Z,6.70
2022-10-05T11:24:10.001Z,4.63
2022-10-05T11:26:55.353Z,6.43
2022-10-05T11:29:41.544Z,11.02
2022-10-05T11:32:37.997Z,6.82
2022-10-05T11:35:33.446Z,4.32
2022-10-05T11:38:39.693Z,4.00
2022-10-05T11:41:26.407Z,3.47
2022-10-05T11:44:07.208Z,5.63
2022-10-05T11:46:58.554Z,6.63
2022-10-05T11:49:49.897Z,4.28
2022-10-05T11:52:28.289Z,3.63
2022-10-05T11:55:10.809Z,6.40
2022-10-05T11:57:48.040Z,5.32
2022-10-05T12:00:42.699Z,6.90
2022-10-05T12:03:34.854Z,5.57
2022-10-05T12:06:24.539Z,4.87
2022-10-05T12:09:22.824Z,3.35
2022-10-05T12:11:53.235Z,4.32
2022-10-05T12:17:11.518Z,4.85
2022-10-05T12:19:48.132Z,5.35
2022-10-05T12:22:23.017Z,5.43
2022-10-05T12:25:41.799Z,4.97
2022-10-05T12:28:13.596Z,5.20
2022-10-05T12:31:12.825Z,3.73
2022-10-05T12:33:55.201Z,4.70
2022-10-05T12:37:03.669Z,3.92
2022-10-05T12:39:31.374Z,4.80
2022-10-05T12:42:28.234Z,7.72
2022-10-05T12:45:21.413Z,4.18
2022-10-05T12:50:42.913Z,4.05
2022-10-05T12:53:38.116Z,2.90
2022-10-05T12:56:11.949Z,5.95
2022-10-05T12:58:39.193Z,9.60
2022-10-05T13:01:16.357Z,3.50
2022-10-05T13:03:52.569Z,4.28
2022-10-05T13:06:49.019Z,2.70
2022-10-05T13:09:34.849Z,3.53
2022-10-05T13:12:25.957Z,4.13
2022-10-05T13:15:04.479Z,3.55
2022-10-05T13:18:12.462Z,6.18
2022-10-05T13:20:49.420Z,7.95
2022-10-05T13:24:01.059Z,6.38
2022-10-05T13:26:34.562Z,3.38
2022-10-05T13:29:24.304Z,5.90
2022-10-05T13:32:00.855Z,9.07
2022-10-05T13:34:37.468Z,5.00
2022-10-05T13:37:41.101Z,9.13
2022-10-05T13:40:46.106Z,5.22
2022-10-05T13:43:50.640Z,3.63
2022-10-05T13:46:40.245Z,7.18
2022-10-05T13:49:23.699Z,4.45
2022-10-05T13:52:25.077Z,6.05
2022-10-05T13:55:15.005Z,8.18
2022-10-05T13:58:14.565Z,4.32
2022-10-05T14:00:50.635Z,6.28
2022-10-05T14:03:35.103Z,6.85
2022-10-05T14:06:14.447Z,6.20
2022-10-05T14:08:54.529Z,5.15
2022-10-05T14:11:31.293Z,6.10
2022-10-05T14:14:10.760Z,8.38
2022-10-05T14:17:13.380Z,6.18
2022-10-05T14:19:47.833Z,12.23
2022-10-05T14:22:23.329Z,4.70
2022-10-05T14:25:02.546Z,9.30
2022-10-05T14:27:33.001Z,5.75
2022-10-05T14:30:08.417Z,6.20
2022-10-05T14:32:59.077Z,5.25
2022-10-05T14:35:49.036Z,5.43
2022-10-05T14:38:18.502Z,3.67
2022-10-05T14:40:45.749Z,8.57
2022-10-05T14:43:15.997Z,7.53
2022-10-05T14:46:23.256Z,4.25
2022-10-05T14:49:21.540Z,5.15
2022-10-05T14:51:51.471Z,6.95
2022-10-05T14:54:53.892Z,6.80
2022-10-05T14:57:52.239Z,5.45
2022-10-05T15:00:19.861Z,5.60
2022-10-05T15:03:08.604Z,7.93
2022-10-05T15:05:44.946Z,5.03
2022-10-05T15:08:12.110Z,6.63
2022-10-05T15:11:01.506Z,4.80
2022-10-05T15:13:33.100Z,6.50
2022-10-05T15:16:03.521Z,6.38
2022-10-05T15:18:42.873Z,6.68
2022-10-05T15:21:47.892Z,6.72
2022-10-05T15:24:17.980Z,3.85
2022-10-05T15:26:53.565Z,8.02
2022-10-05T15:29:52.159Z,4.65
2022-10-05T15:32:41.523Z,4.53
2022-10-05T15:35:24.421Z,6.03
2022-10-05T15:40:42.540Z,3.97
2022-10-05T15:45:51.689Z,4.85
2022-10-05T15:48:29.209Z,5.10
2022-10-05T15:51:10.181Z,8.55
2022-10-05T15:53:49.493Z,5.53
2022-10-05T15:56:23.627Z,5.57
2022-10-05T15:59:12.125Z,5.90
2022-10-05T16:01:49.578Z,4.30
2022-10-05T16:04:22.610Z,3.42
2022-10-05T16:07:20.051Z,4.75
2022-10-05T16:10:14.913Z,5.30
2022-10-05T16:13:08.156Z,9.48
2022-10-05T16:15:46.405Z,9.18
2022-10-05T16:18:41.544Z,8.18
2022-10-05T16:21:23.752Z,3.92
2022-10-05T16:24:18.610Z,5.45
2022-10-05T16:26:59.577Z,6.72
2022-10-05T16:29:36.126Z,5.25
2022-10-05T16:32:12.350Z,5.22
2022-10-05T16:35:04.214Z,8.13
2022-10-05T16:38:09.860Z,6.47
2022-10-05T16:41:01.926Z,7.50
2022-10-05T16:43:53.944Z,6.80
2022-10-05T16:46:40.709Z,8.32
2022-10-05T16:49:23.249Z,7.65
2022-10-05T16:52:01.742Z,4.60
2022-10-05T16:54:45.426Z,6.38
2022-10-05T16:57:28.838Z,7.30
2022-10-05T16:59:55.960Z,4.40
2022-10-05T17:02:37.771Z,9.20
2022-10-05T17:05:42.367Z,4.90
2022-10-05T17:08:49.697Z,13.60
2022-10-05T17:11:32.373Z,5.10
2022-10-05T17:14:29.701Z,8.85
2022-10-05T17:17:15.819Z,8.75
2022-10-05T17:20:21.214Z,12.10
2022-10-05T17:23:04.028Z,7.53
2022-10-05T17:25:39.366Z,9.10
2022-10-05T17:28:18.746Z,9.00
2022-10-05T17:30:53.968Z,6.18
2022-10-05T17:33:32.279Z,5.80
2022-10-05T17:36:08.442Z,6.28
2022-10-05T17:38:35.565Z,6.55
2022-10-05T17:41:28.371Z,9.60
2022-10-05T17:44:18.985Z,10.25
2022-10-05T17:46:52.107Z,5.13
2022-10-05T17:50:17.151Z,7.15
2022-10-05T17:53:03.716Z,7.45
2022-10-05T17:55:34.246Z,9.57
2022-10-05T17:58:41.762Z,6.68
2022-10-05T18:01:25.073Z,7.80
2022-10-05T18:03:52.485Z,10.52
2022-10-05T18:06:25.133Z,12.27
2022-10-05T18:09:17.019Z,11.93
2022-10-05T18:11:49.313Z,4.97
2022-10-05T18:15:01.541Z,8.55
2022-10-05T18:17:43.845Z,10.52
2022-10-05T18:20:31.944Z,9.70
2022-10-05T18:23:09.724Z,9.32
2022-10-05T18:25:44.740Z,8.32
2022-10-05T18:28:34.105Z,11.75
2022-10-05T18:31:36.691Z,9.18
2022-10-05T18:34:34.217Z,16.92
2022-10-05T18:37:39.286Z,7.82
2022-10-05T18:40:50.293Z,10.15
2022-10-05T18:43:45.315Z,10.88
2022-10-05T18:47:04.959Z,6.18
2022-10-05T18:49:43.900Z,11.73
2022-10-05T18:52:16.461Z,8.90
2022-10-05T18:58:07.535Z,8.95
2022-10-05T19:04:16.073Z,9.30
2022-10-05T19:10:03.568Z,8.50
2022-10-05T19:13:01.292Z,6.53
2022-10-05T19:16:07.814Z,5.55
2022-10-05T19:19:49.810Z,8.55
2022-10-05T19:22:26.938Z,10.80
2022-10-05T19:25:23.736Z,7.93
2022-10-05T19:28:20.818Z,11.13
2022-10-05T19:31:23.185Z,8.35
2022-10-05T19:34:06.398Z,12.05
2022-10-05T19:36:54.704Z,8.70
2022-10-05T19:39:58.201Z,11.65
2022-10-05T19:42:46.180Z,11.48
2022-10-05T19:45:32.107Z,7.60
2022-10-05T19:48:20.413Z,11.80
2022-10-05T19:51:19.824Z,12.60
2022-10-05T19:53:50.730Z,10.55
2022-10-05T19:59:21.126Z,8.50
2022-10-05T20:05:17.898Z,9.83
2022-10-05T20:07:47.401Z,10.38
2022-10-05T20:10:29.518Z,13.02
2022-10-05T20:13:00.921Z,12.32
2022-10-05T20:15:50.593Z,10.60
2022-10-05T20:27:59.273Z,8.40
2022-10-05T20:33:41.705Z,7.80
2022-10-05T20:38:48.848Z,9.85
2022-10-05T20:47:34.384Z,13.75
2022-10-05T20:50:05.610Z,9.55
2022-10-05T21:02:19.154Z,7.93
2022-10-05T21:08:36.537Z,5.00
2022-10-05T21:11:09.001Z,4.65
2022-10-05T21:13:42.389Z,5.93
2022-10-05T21:24:47.467Z,7.05
2022-10-05T21:27:17.073Z,12.65
2022-10-05T21:29:44.272Z,9.77
2022-10-05T21:32:12.064Z,7.97
2022-10-05T21:34:40.763Z,4.57
2022-10-05T21:37:09.332Z,4.93
2022-10-05T21:39:37.308Z,11.98
2022-10-05T21:42:04.791Z,7.88
2022-10-05T21:44:32.289Z,7.18
2022-10-05T21:47:04.532Z,9.25
2022-10-05T21:49:32.293Z,7.25
2022-10-05T21:54:51.452Z,5.60
2022-10-05T21:57:27.286Z,9.73
2022-10-05T22:02:40.441Z,6.38
2022-10-05T22:05:08.622Z,4.88
2022-10-05T22:07:44.446Z,5.38
2022-10-05T22:10:13.834Z,7.57
2022-10-05T22:15:57.400Z,6.45
2022-10-05T22:18:27.250Z,8.98
2022-10-05T22:20:54.783Z,6.95
2022-10-05T22:23:28.473Z,9.88
2022-10-05T22:26:09.996Z,10.57
2022-10-05T22:28:39.782Z,8.70
2022-10-05T22:31:11.848Z,11.18
2022-10-05T22:33:40.045Z,15.02
2022-10-05T22:36:08.357Z,6.03
2022-10-05T22:38:39.130Z,12.38
2022-10-05T22:41:11.976Z,8.40
2022-10-05T22:43:42.006Z,9.18
2022-10-05T22:46:15.037Z,9.10
2022-10-05T22:48:42.512Z,7.85
2022-10-05T22:51:13.605Z,11.13
2022-10-05T22:53:41.293Z,12.25
2022-10-05T22:56:10.841Z,13.88
2022-10-05T22:58:38.854Z,11.02
2022-10-05T23:01:09.844Z,16.65
2022-10-05T23:03:37.549Z,14.35
2022-10-05T23:06:10.053Z,17.98
2022-10-05T23:08:38.595Z,12.55
2022-10-05T23:11:14.165Z,14.38
2022-10-05T23:13:41.676Z,15.50
2022-10-05T23:16:12.394Z,17.65
2022-10-05T23:18:40.052Z,11.98
2022-10-05T23:21:08.627Z,15.85
2022-10-05T23:23:37.404Z,14.38
2022-10-05T23:26:06.047Z,13.43
2022-10-05T23:28:34.492Z,14.02
2022-10-05T23:31:04.387Z,11.35
2022-10-05T23:33:31.971Z,11.13
2022-10-05T23:36:04.727Z,21.60
2022-10-05T23:38:32.350Z,15.98
2022-10-05T23:40:59.912Z,18.13
2022-10-05T23:43:27.622Z,11.38
2022-10-05T23:45:55.454Z,15.98
2022-10-05T23:48:23.071Z,11.70
2022-10-05T23:50:50.505Z,12.60
2022-10-05T23:53:18.676Z,15.55
2022-10-05T23:55:46.129Z,11.88
2022-10-05T23:58:13.299Z,9.73
